Time;durP1;ratioP1;P1;durP2;ratioP2;P2;SDS_P1;SDS_P2;PMS_P1;PMS_P2;Temp;Humidity;BMP_temperature;BMP_pressure;BME280_temperature;BME280_humidity;BME280_pressure;Samples;Min_cycle;Max_cycle;Signal;HPM_P1;HPM_P2
2022/01/03 00:02:15;;;;;;;;;;;;;;;9.95;56.64;99819.69;4417006;32;20003;-88
2022/01/03 00:04:42;;;;;;;;;;;;;;;9.88;57.12;99820.44;4430591;32;19977;-88
2022/01/03 00:07:10;;;;;;;;;;;;;;;9.86;57.30;99809.16;4416056;32;20031;-87
2022/01/03 00:09:36;;;;;;;;;;;;;;;9.85;57.29;99812.59;4429383;32;19989;-88
2022/01/03 00:12:04;;;;;;;;;;;;;;;9.61;57.43;99815.63;4416183;32;19973;-89
2022/01/03 00:14:31;;;;;;;;;;;;;;;9.45;57.87;99817.03;4430176;32;19993;-90
2022/01/03 00:16:58;;;;;;;;;;;;;;;9.77;57.28;99821.09;4420112;32;20578;-91
2022/01/03 00:19:25;;;;;;;;;;;;;;;9.84;56.95;99816.06;4414647;32;19977;-90
2022/01/03 00:21:53;;;;;;;;;;;;;;;9.80;57.37;99814.25;4413734;32;20394;-91
2022/01/03 00:24:27;;;;;;;;;;;;;;;9.90;56.46;99805.81;4411710;32;19989;-89
2022/01/03 00:27:00;;;;;;;;;;;;;;;9.73;57.03;99811.56;4436550;32;20364;-89
2022/01/03 00:29:27;;;;;;;;;;;;;;;9.95;55.75;99820.56;4416888;32;19978;-90
2022/01/03 00:31:56;;;;;;;;;;;;;;;9.77;55.77;99810.75;4419054;32;20004;-87
2022/01/03 00:34:23;;;;;;;;;;;;;;;9.86;56.17;99799.72;4435120;32;20428;-87
2022/01/03 00:36:50;;;;;;;;;;;;;;;9.90;55.87;99795.47;4421317;32;19997;-87
2022/01/03 00:39:16;;;;;;;;;;;;;;;9.71;56.65;99804.59;4438718;32;19982;-89
2022/01/03 00:41:46;;;;;;;;;;;;;;;9.81;55.98;99790.13;4415195;32;20001;-89
2022/01/03 00:44:12;;;;;;;;;;;;;;;9.80;56.02;99793.56;4415446;32;20004;-89
2022/01/03 00:46:41;;;;;;;;;;;;;;;9.62;55.91;99800.12;4438638;32;19995;-87
2022/01/03 00:49:08;;;;;;;;;;;;;;;9.63;55.75;99799.28;4414884;32;20040;-88
2022/01/03 00:51:35;;;;;;;;;;;;;;;9.60;55.97;99796.63;4415048;32;20550;-88
2022/01/03 00:54:02;;;;;;;;;;;;;;;9.31;56.86;99799.50;4434511;32;20046;-88
2022/01/03 00:56:35;;;;;;;;;;;;;;;9.36;56.56;99793.59;4420382;32;19982;-87
2022/01/03 00:59:09;;;;;;;;;;;;;;;9.49;55.51;99799.03;4415170;32;19992;-89
2022/01/03 01:01:37;;;;;;;;;;;;;;;9.49;55.35;99808.50;4438028;32;20007;-89
2022/01/03 01:04:07;;;;;;;;;;;;;;;9.51;55.22;99806.81;4421660;32;19981;-87
2022/01/03 01:06:35;;;;;;;;;;;;;;;9.57;55.02;99806.03;4432360;32;20003;-88
2022/01/03 01:09:03;;;;;;;;;;;;;;;9.50;54.84;99794.72;4417626;32;20048;-88
2022/01/03 01:11:30;;;;;;;;;;;;;;;9.16;55.88;99804.38;4416665;32;19974;-88
2022/01/03 01:13:58;;;;;;;;;;;;;;;9.25;55.39;99794.25;4441317;32;20008;-89
2022/01/03 01:16:25;;;;;;;;;;;;;;;9.22;55.72;99794.19;4440736;32;19982;-89
2022/01/03 01:18:52;;;;;;;;;;;;;;;9.12;55.88;99802.56;4446853;32;19990;-87
2022/01/03 01:21:20;;;;;;;;;;;;;;;8.98;55.89;99801.41;4432055;32;19996;-88
2022/01/03 01:23:50;;;;;;;;;;;;;;;9.32;54.35;99801.28;4431809;32;20013;-87
2022/01/03 01:29:07;;;;;;;;;;;;;;;9.24;54.30;99792.47;4421232;32;19986;-89
2022/01/03 01:31:35;;;;;;;;;;;;;;;9.25;54.92;99789.09;4430642;32;20487;-88
2022/01/03 01:34:03;;;;;;;;;;;;;;;9.16;55.43;99780.28;4427365;32;19986;-88
2022/01/03 01:36:31;;;;;;;;;;;;;;;8.92;55.61;99786.63;4422891;32;20377;-88
2022/01/03 01:39:00;;;;;;;;;;;;;;;9.12;54.61;99781.88;4415190;32;20402;-89
2022/01/03 01:41:27;;;;;;;;;;;;;;;9.11;54.10;99780.16;4415637;32;19974;-87
2022/01/03 01:43:57;;;;;;;;;;;;;;;8.87;55.22;99774.47;4440121;32;19982;-88
2022/01/03 01:46:24;;;;;;;;;;;;;;;9.07;54.82;99773.19;4439161;32;19978;-86
2022/01/03 01:48:52;;;;;;;;;;;;;;;9.07;54.60;99762.88;4443728;32;19996;-85
2022/01/03 01:51:22;;;;;;;;;;;;;;;8.89;55.15;99763.34;4430589;32;20255;-87
2022/01/03 01:53:51;;;;;;;;;;;;;;;8.64;56.10;99756.75;4432098;32;20355;-83
2022/01/03 01:56:25;;;;;;;;;;;;;;;9.03;55.50;99751.59;4421886;32;20334;-87
2022/01/03 01:59:20;;;;;;;;;;;;;;;8.98;55.10;99752.34;4423233;32;19993;-85
2022/01/03 02:01:49;;;;;;;;;;;;;;;8.82;55.96;99762.34;4428952;32;19990;-86
2022/01/03 02:04:31;;;;;;;;;;;;;;;8.85;56.21;99757.25;4417245;32;19997;-85
2022/01/03 02:07:05;;;;;;;;;;;;;;;8.99;55.90;99759.25;4399718;32;19998;-84
2022/01/03 02:09:42;;;;;;;;;;;;;;;8.96;56.06;99769.50;4400290;32;20073;-85
2022/01/03 02:12:13;;;;;;;;;;;;;;;8.98;55.87;99762.69;4398652;32;19986;-84
2022/01/03 02:14:40;;;;;;;;;;;;;;;9.03;55.65;99753.28;4399936;32;19982;-86
2022/01/03 02:17:07;;;;;;;;;;;;;;;8.90;56.30;99756.47;4405127;32;20024;-85
2022/01/03 02:19:37;;;;;;;;;;;;;;;8.91;56.70;99755.66;4424338;32;20354;-86
2022/01/03 02:22:05;;;;;;;;;;;;;;;8.25;58.80;99752.41;4420078;32;20275;-85
2022/01/03 02:24:32;;;;;;;;;;;;;;;8.93;56.62;99753.94;4418877;32;19982;-85
2022/01/03 02:27:00;;;;;;;;;;;;;;;9.01;56.38;99747.25;4432614;32;20030;-85
2022/01/03 02:29:27;;;;;;;;;;;;;;;9.11;56.43;99736.25;4415681;32;20369;-85
2022/01/03 02:31:54;;;;;;;;;;;;;;;9.16;55.89;99736.38;4424729;32;19989;-85
2022/01/03 02:34:23;;;;;;;;;;;;;;;9.22;56.35;99737.38;4415087;32;20005;-87
2022/01/03 02:36:51;;;;;;;;;;;;;;;9.29;56.18;99739.22;4419147;32;19989;-88
2022/01/03 02:39:18;;;;;;;;;;;;;;;9.07;56.54;99737.06;4440083;32;20004;-88
2022/01/03 02:41:46;;;;;;;;;;;;;;;9.18;56.88;99730.38;4423423;32;19970;-87
2022/01/03 02:44:17;;;;;;;;;;;;;;;9.18;56.88;99730.38;4442411;32;19997;-87
2022/01/03 02:46:44;;;;;;;;;;;;;;;9.30;56.24;99725.44;4430187;32;20004;-87
2022/01/03 02:49:11;;;;;;;;;;;;;;;9.07;56.74;99722.44;4417464;32;19989;-82
2022/01/03 02:51:38;;;;;;;;;;;;;;;9.21;56.51;99740.75;4430148;32;20005;-87
2022/01/03 02:54:05;;;;;;;;;;;;;;;8.79;57.43;99736.47;4420406;32;20053;-87
2022/01/03 02:56:33;;;;;;;;;;;;;;;8.90;57.65;99733.22;4421024;32;21113;-85
2022/01/03 02:59:00;;;;;;;;;;;;;;;9.25;57.02;99726.19;4431124;32;20345;-86
2022/01/03 03:01:29;;;;;;;;;;;;;;;9.23;57.31;99739.09;4429081;32;19977;-87
2022/01/03 03:03:56;;;;;;;;;;;;;;;9.38;57.69;99732.47;4423932;32;19994;-87
2022/01/03 03:06:24;;;;;;;;;;;;;;;9.40;58.21;99754.06;4430190;32;20035;-87
2022/01/03 03:08:52;;;;;;;;;;;;;;;9.19;58.93;99757.06;4431593;32;19990;-85
2022/01/03 03:11:19;;;;;;;;;;;;;;;9.47;59.23;99750.72;4426691;32;20347;-86
2022/01/03 03:13:46;;;;;;;;;;;;;;;9.54;59.02;99744.88;4431262;32;19985;-86
2022/01/03 03:16:13;;;;;;;;;;;;;;;9.68;58.26;99733.06;4416389;32;20765;-85
2022/01/03 03:18:42;;;;;;;;;;;;;;;9.82;58.34;99740.16;4416563;32;19994;-84
2022/01/03 03:21:09;;;;;;;;;;;;;;;9.93;58.88;99733.47;4427456;32;19982;-87
2022/01/03 03:23:36;;;;;;;;;;;;;;;9.99;59.33;99728.41;4417813;32;19997;-86
2022/01/03 03:26:05;;;;;;;;;;;;;;;10.21;58.92;99720.16;4418401;32;20024;-85
2022/01/03 03:28:32;;;;;;;;;;;;;;;10.38;58.35;99722.16;4413047;32;19994;-87
2022/01/03 03:31:00;;;;;;;;;;;;;;;10.46;57.96;99720.53;4422812;32;20312;-87
2022/01/03 03:33:32;;;;;;;;;;;;;;;10.56;58.17;99727.59;4439303;32;20675;-88
2022/01/03 03:35:59;;;;;;;;;;;;;;;10.65;57.91;99719.94;4412718;32;19994;-87
2022/01/03 03:38:27;;;;;;;;;;;;;;;10.71;56.59;99712.25;4421244;32;19974;-87
2022/01/03 03:40:55;;;;;;;;;;;;;;;10.75;55.80;99730.44;4415900;32;19974;-87
2022/01/03 03:43:22;;;;;;;;;;;;;;;10.67;55.85;99731.19;4440083;32;19978;-87
2022/01/03 03:45:49;;;;;;;;;;;;;;;10.70;55.70;99725.19;4414105;32;20106;-85
2022/01/03 03:48:17;;;;;;;;;;;;;;;10.67;55.82;99726.03;4420149;32;19986;-87
2022/01/03 03:50:44;;;;;;;;;;;;;;;10.57;56.12;99724.16;4439596;32;19993;-85
2022/01/03 03:53:12;;;;;;;;;;;;;;;10.54;56.26;99731.00;4412131;32;19982;-89
2022/01/03 03:55:39;;;;;;;;;;;;;;;10.54;56.14;99729.28;4420795;32;20394;-89
2022/01/03 03:58:07;;;;;;;;;;;;;;;10.48;56.30;99735.25;4439953;32;19994;-86
2022/01/03 04:00:34;;;;;;;;;;;;;;;10.58;55.68;99715.53;4416049;32;19993;-88
2022/01/03 04:03:02;;;;;;;;;;;;;;;10.47;55.89;99727.47;4419792;32;19989;-82
2022/01/03 04:05:30;;;;;;;;;;;;;;;10.52;55.77;99750.81;4425757;32;19993;-87
2022/01/03 04:07:57;;;;;;;;;;;;;;;10.45;55.83;99724.84;4419394;32;20851;-85
2022/01/03 04:10:24;;;;;;;;;;;;;;;10.34;56.36;99728.09;4415941;32;19973;-86
2022/01/03 04:12:51;;;;;;;;;;;;;;;10.35;56.48;99743.66;4409299;32;20342;-89
2022/01/03 04:15:18;;;;;;;;;;;;;;;10.47;55.95;99732.66;4414719;32;20000;-89
2022/01/03 04:17:45;;;;;;;;;;;;;;;10.36;56.33;99718.66;4415595;32;20041;-86
2022/01/03 04:20:15;;;;;;;;;;;;;;;10.13;57.06;99737.25;4414471;32;20244;-89
2022/01/03 04:22:42;;;;;;;;;;;;;;;10.31;56.78;99746.19;4420323;32;20002;-86
2022/01/03 04:25:10;;;;;;;;;;;;;;;10.20;57.42;99739.09;4425675;32;20684;-85
2022/01/03 04:27:38;;;;;;;;;;;;;;;10.35;57.33;99742.81;4416748;32;19974;-88
2022/01/03 04:30:05;;;;;;;;;;;;;;;9.58;61.68;99746.66;4413618;32;19982;-86
2022/01/03 04:32:32;;;;;;;;;;;;;;;10.17;60.08;99730.41;4423001;32;19993;-83
2022/01/03 04:35:00;;;;;;;;;;;;;;;10.18;60.39;99753.72;4416879;32;20324;-87
2022/01/03 04:37:28;;;;;;;;;;;;;;;10.45;59.52;99745.53;4424092;32;20011;-86
2022/01/03 04:39:56;;;;;;;;;;;;;;;10.30;60.21;99754.78;4423819;32;19977;-84
2022/01/03 04:42:24;;;;;;;;;;;;;;;10.67;58.99;99751.03;4417290;32;20077;-87
2022/01/03 04:44:51;;;;;;;;;;;;;;;10.73;58.88;99752.84;4416922;32;20026;-86
2022/01/03 04:47:18;;;;;;;;;;;;;;;10.70;58.80;99736.41;4419316;32;19985;-86
2022/01/03 04:49:47;;;;;;;;;;;;;;;10.89;57.91;99731.50;4415399;32;20299;-85
2022/01/03 04:52:14;;;;;;;;;;;;;;;10.97;57.76;99732.44;4410771;32;20001;-86
2022/01/03 04:54:41;;;;;;;;;;;;;;;11.03;57.66;99714.41;4412855;32;20012;-85
2022/01/03 04:57:08;;;;;;;;;;;;;;;11.07;57.12;99736.91;4401766;32;20005;-88
2022/01/03 04:59:36;;;;;;;;;;;;;;;11.28;56.64;99735.41;4401677;32;19987;-85
2022/01/03 05:02:03;;;;;;;;;;;;;;;11.27;56.58;99733.69;4408780;32;19974;-88
2022/01/03 05:04:31;;;;;;;;;;;;;;;11.05;57.28;99722.19;4401878;32;20362;-86
2022/01/03 05:06:58;;;;;;;;;;;;;;;11.11;57.37;99737.81;4412612;32;20024;-85
2022/01/03 05:09:26;;;;;;;;;;;;;;;11.26;56.85;99726.75;4401760;32;19975;-87
2022/01/03 05:11:53;;;;;;;;;;;;;;;11.29;56.67;99719.00;4401495;32;19991;-87
2022/01/03 05:14:21;;;;;;;;;;;;;;;11.38;56.19;99721.72;4402965;32;19993;-87
2022/01/03 05:16:49;;;;;;;;;;;;;;;11.47;56.10;99719.22;4409162;32;19993;-88
2022/01/03 05:19:16;;;;;;;;;;;;;;;11.46;56.04;99717.50;4400578;32;19998;-85
2022/01/03 05:21:42;;;;;;;;;;;;;;;11.41;56.33;99716.56;4412550;32;19994;-87
2022/01/03 05:24:09;;;;;;;;;;;;;;;11.35;56.51;99716.50;4404065;32;19985;-87
2022/01/03 05:26:36;;;;;;;;;;;;;;;11.45;56.34;99702.75;4422657;32;20294;-85
2022/01/03 05:29:03;;;;;;;;;;;;;;;11.53;56.06;99695.94;4439394;32;20038;-82
2022/01/03 05:31:31;;;;;;;;;;;;;;;11.35;56.42;99695.75;4446222;32;20054;-82
2022/01/03 05:34:00;;;;;;;;;;;;;;;10.90;57.52;99691.78;4439399;32;20670;-83
2022/01/03 05:36:27;;;;;;;;;;;;;;;10.69;58.40;99688.09;4139412;32;10000200;-83
2022/01/03 05:38:54;;;;;;;;;;;;;;;10.59;58.70;99698.28;4446096;32;19997;-81
2022/01/03 05:41:21;;;;;;;;;;;;;;;10.90;57.76;99691.78;4433155;32;19980;-83
2022/01/03 05:43:49;;;;;;;;;;;;;;;11.00;57.74;99685.88;4433908;32;19985;-81
2022/01/03 05:46:16;;;;;;;;;;;;;;;10.87;58.14;99696.94;4430720;32;19993;-79
2022/01/03 05:48:43;;;;;;;;;;;;;;;11.10;57.71;99705.88;4436006;32;20006;-82
2022/01/03 05:51:11;;;;;;;;;;;;;;;10.91;58.19;99703.87;4442766;32;19999;-85
2022/01/03 05:53:38;;;;;;;;;;;;;;;11.17;57.14;99696.44;4448241;32;19981;-84
2022/01/03 05:56:05;;;;;;;;;;;;;;;11.46;56.04;99696.75;4447517;32;19989;-82
2022/01/03 05:58:32;;;;;;;;;;;;;;;11.60;55.51;99705.53;4447682;32;19989;-84
2022/01/03 06:01:01;;;;;;;;;;;;;;;11.19;56.73;99699.91;4445886;32;20319;-86
2022/01/03 06:03:34;;;;;;;;;;;;;;;11.60;55.72;99702.94;4447870;32;19974;-85
2022/01/03 06:08:28;;;;;;;;;;;;;;;11.85;54.88;99713.56;4438000;32;20286;-80
2022/01/03 06:10:55;;;;;;;;;;;;;;;11.81;54.76;99701.41;4428947;32;20005;-82
2022/01/03 06:13:22;;;;;;;;;;;;;;;11.95;54.34;99704.13;4429992;32;19981;-82
2022/01/03 06:15:50;;;;;;;;;;;;;;;11.99;54.24;99696.37;4434826;32;20322;-81
2022/01/03 06:18:18;;;;;;;;;;;;;;;12.04;53.85;99705.06;4430934;32;20428;-80
2022/01/03 06:20:46;;;;;;;;;;;;;;;11.95;54.17;99689.44;4430137;32;19986;-84
2022/01/03 06:23:14;;;;;;;;;;;;;;;11.89;54.38;99684.19;4430440;32;20279;-82
2022/01/03 06:25:41;;;;;;;;;;;;;;;12.09;53.77;99687.84;4421532;32;19997;-82
2022/01/03 06:28:09;;;;;;;;;;;;;;;12.09;53.96;99697.31;4438559;32;20045;-83
2022/01/03 06:30:38;;;;;;;;;;;;;;;11.37;56.21;99709.59;4438337;32;19995;-83
2022/01/03 06:33:05;;;;;;;;;;;;;;;10.88;57.90;99715.09;4430711;32;19995;-83
2022/01/03 06:35:32;;;;;;;;;;;;;;;10.89;58.11;99722.00;4430915;32;19993;-84
2022/01/03 06:37:59;;;;;;;;;;;;;;;10.69;58.68;99734.69;4434080;32;19988;-82
2022/01/03 06:40:27;;;;;;;;;;;;;;;10.84;58.20;99743.50;4428484;32;19978;-82
2022/01/03 06:42:54;;;;;;;;;;;;;;;11.04;57.55;99735.97;4427528;32;20064;-82
2022/01/03 06:45:21;;;;;;;;;;;;;;;11.53;55.96;99727.06;4426805;32;20099;-83
2022/01/03 06:47:53;;;;;;;;;;;;;;;11.85;54.72;99732.59;4437096;32;19977;-82
2022/01/03 06:50:20;;;;;;;;;;;;;;;11.97;54.34;99734.44;4431790;32;20013;-82
2022/01/03 06:52:48;;;;;;;;;;;;;;;12.03;54.01;99729.28;4432869;32;19986;-82
2022/01/03 06:55:16;;;;;;;;;;;;;;;12.16;54.01;99716.44;4414736;32;20005;-81
2022/01/03 06:57:43;;;;;;;;;;;;;;;12.18;54.02;99712.09;4434594;32;20007;-81
2022/01/03 07:00:10;;;;;;;;;;;;;;;12.33;53.34;99691.44;4430218;32;20008;-82
2022/01/03 07:02:42;;;;;;;;;;;;;;;12.21;54.13;99691.34;4430383;32;20496;-82
2022/01/03 07:05:10;;;;;;;;;;;;;;;12.26;53.39;99671.50;4417069;32;20001;-82
2022/01/03 07:07:37;;;;;;;;;;;;;;;12.10;53.96;99674.00;4420145;32;20033;-80
2022/01/03 07:10:04;;;;;;;;;;;;;;;12.36;52.96;99655.12;4429595;32;20039;-80
2022/01/03 07:12:31;;;;;;;;;;;;;;;12.42;53.10;99655.16;4433977;32;19977;-82
2022/01/03 07:20:11;;;;;;;;;;;;;;;12.49;52.62;99662.12;4430996;32;19985;-83
2022/01/03 07:22:40;;;;;;;;;;;;;;;12.68;52.40;99667.41;4435628;32;19997;-81
2022/01/03 07:25:07;;;;;;;;;;;;;;;12.84;51.39;99669.22;4419804;32;20001;-81
2022/01/03 07:27:34;;;;;;;;;;;;;;;12.65;52.44;99688.19;4431354;32;20032;-80
2022/01/03 07:30:02;;;;;;;;;;;;;;;13.26;49.17;99657.25;4429227;32;19978;-82
2022/01/03 07:32:28;;;;;;;;;;;;;;;13.49;48.55;99645.16;4435224;32;20036;-81
2022/01/03 07:34:55;;;;;;;;;;;;;;;13.44;48.24;99641.69;4432401;32;20007;-83
2022/01/03 07:37:22;;;;;;;;;;;;;;;13.79;47.49;99634.78;4438359;32;19994;-81
2022/01/03 07:39:49;;;;;;;;;;;;;;;13.76;46.97;99653.84;4431972;32;19985;-83
2022/01/03 07:42:16;;;;;;;;;;;;;;;14.06;46.07;99646.88;4415294;32;19985;-81
2022/01/03 07:44:43;;;;;;;;;;;;;;;14.10;46.13;99664.22;4428571;32;20028;-83
2022/01/03 07:47:10;;;;;;;;;;;;;;;14.19;45.65;99664.22;4435680;32;19993;-86
2022/01/03 07:49:37;;;;;;;;;;;;;;;14.35;44.72;99649.44;4430216;32;19993;-85
2022/01/03 07:52:04;;;;;;;;;;;;;;;14.57;45.09;99656.34;4427638;32;19993;-82
2022/01/03 07:54:31;;;;;;;;;;;;;;;14.40;44.91;99648.56;4434800;32;20035;-83
2022/01/03 07:56:59;;;;;;;;;;;;;;;14.55;43.72;99678.94;4430648;32;20009;-82
2022/01/03 07:59:26;;;;;;;;;;;;;;;14.46;45.20;99678.06;4428750;32;20044;-82
2022/01/03 08:01:53;;;;;;;;;;;;;;;14.57;44.25;99676.31;4432105;32;20000;-85
2022/01/03 08:04:20;;;;;;;;;;;;;;;14.91;43.10;99681.44;4441895;32;19989;-82
2022/01/03 08:06:47;;;;;;;;;;;;;;;14.94;43.24;99665.78;4430454;32;19992;-85
2022/01/03 08:09:14;;;;;;;;;;;;;;;14.91;43.46;99697.94;4431921;32;20064;-83
2022/01/03 08:11:41;;;;;;;;;;;;;;;14.96;43.53;99700.50;4416645;32;19993;-86
2022/01/03 08:14:08;;;;;;;;;;;;;;;14.83;43.22;99700.56;4432834;32;19986;-86
2022/01/03 08:16:35;;;;;;;;;;;;;;;14.88;43.67;99711.84;4429129;32;20709;-86
2022/01/03 08:19:02;;;;;;;;;;;;;;;14.86;43.48;99705.75;4430478;32;19981;-86
2022/01/03 08:21:29;;;;;;;;;;;;;;;14.75;43.94;99699.72;4434465;32;20009;-87
2022/01/03 08:23:57;;;;;;;;;;;;;;;14.85;43.88;99709.25;4382557;32;20330;-88
2022/01/03 08:26:26;;;;;;;;;;;;;;;14.97;43.60;99708.34;4414246;32;20443;-85
2022/01/03 08:28:54;;;;;;;;;;;;;;;14.70;44.24;99698.88;4409152;32;20048;-87
2022/01/03 08:31:24;;;;;;;;;;;;;;;14.72;44.52;99712.75;4398344;32;912239;-85
2022/01/03 08:33:51;;;;;;;;;;;;;;;14.89;43.98;99710.97;4431615;32;20024;-86
2022/01/03 08:36:18;;;;;;;;;;;;;;;15.04;43.31;99709.19;4428027;32;20051;-86
2022/01/03 08:38:45;;;;;;;;;;;;;;;15.11;43.09;99716.09;4422031;32;19970;-87
2022/01/03 08:41:13;;;;;;;;;;;;;;;15.15;43.26;99717.81;4432525;32;20035;-85
2022/01/03 08:43:40;;;;;;;;;;;;;;;14.78;44.06;99723.16;4433453;32;20846;-83
2022/01/03 08:46:07;;;;;;;;;;;;;;;14.96;44.14;99716.16;4424574;32;20052;-83
2022/01/03 08:48:34;;;;;;;;;;;;;;;14.88;44.33;99714.44;4433818;32;21166;-85
2022/01/03 08:51:01;;;;;;;;;;;;;;;14.89;44.30;99715.31;4430472;32;19993;-84
2022/01/03 08:53:32;;;;;;;;;;;;;;;15.03;44.33;99729.16;4428481;32;19993;-85
2022/01/03 08:55:59;;;;;;;;;;;;;;;14.83;44.26;99729.22;4423682;32;19997;-83
2022/01/03 08:58:26;;;;;;;;;;;;;;;14.83;44.43;99729.22;4442014;32;19984;-79
2022/01/03 09:00:53;;;;;;;;;;;;;;;15.02;44.08;99742.19;4445173;32;20043;-81
2022/01/03 09:03:20;;;;;;;;;;;;;;;15.09;43.98;99743.91;4422936;32;20015;-79
2022/01/03 09:05:49;;;;;;;;;;;;;;;15.14;44.10;99747.38;4428455;32;20318;-82
2022/01/03 09:08:17;;;;;;;;;;;;;;;14.92;44.96;99740.50;4412810;32;20062;-84
2022/01/03 09:10:44;;;;;;;;;;;;;;;15.33;43.82;99754.22;4413692;32;19986;-83
2022/01/03 09:13:11;;;;;;;;;;;;;;;15.04;44.33;99730.91;4414726;32;20064;-84
2022/01/03 09:15:40;;;;;;;;;;;;;;;15.04;44.35;99735.25;4424495;32;20002;-84
2022/01/03 09:18:17;;;;;;;;;;;;;;;14.85;45.30;99750.06;4421853;32;19978;-86
2022/01/03 09:20:45;;;;;;;;;;;;;;;15.19;44.12;99750.84;4429240;32;19982;-89
2022/01/03 09:23:17;;;;;;;;;;;;;;;15.09;42.98;99743.91;4403309;32;20057;-86
2022/01/03 09:28:49;;;;;;;;;;;;;;;14.97;43.37;99757.87;4437859;32;20018;-85
2022/01/03 09:31:17;;;;;;;;;;;;;;;15.06;42.93;99743.91;4421867;32;20476;-85
2022/01/03 09:33:44;;;;;;;;;;;;;;;15.02;43.25;99747.41;4445674;32;20007;-81
2022/01/03 09:36:13;;;;;;;;;;;;;;;14.98;43.62;99740.47;4447122;32;19989;-86
2022/01/03 09:38:39;;;;;;;;;;;;;;;15.11;43.31;99737.81;4445536;32;20022;-85
2022/01/03 09:41:07;;;;;;;;;;;;;;;14.80;44.26;99721.41;4447089;32;19992;-86
2022/01/03 09:43:54;;;;;;;;;;;;;;;15.04;43.63;99730.03;4436452;32;20043;-85
2022/01/03 09:46:25;;;;;;;;;;;;;;;14.91;43.31;99707.50;4437478;32;19980;-80
2022/01/03 09:48:52;;;;;;;;;;;;;;;15.15;43.09;99717.81;4447761;32;19985;-79
2022/01/03 09:51:27;;;;;;;;;;;;;;;15.22;43.15;99703.87;4446856;32;20038;-79
2022/01/03 09:53:54;;;;;;;;;;;;;;;15.07;43.15;99711.78;4437677;32;20335;-79
2022/01/03 09:56:21;;;;;;;;;;;;;;;15.05;43.72;99723.94;4443604;32;19981;-80
2022/01/03 09:58:48;;;;;;;;;;;;;;;15.09;43.55;99717.81;4422943;32;19993;-80
2022/01/03 10:01:15;;;;;;;;;;;;;;;14.92;44.07;99710.09;4416009;32;19986;-82
2022/01/03 10:03:47;;;;;;;;;;;;;;;14.76;44.51;99709.28;4421768;32;20329;-83
2022/01/03 10:06:15;;;;;;;;;;;;;;;14.83;44.32;99705.75;4444660;32;20432;-85
2022/01/03 10:08:43;;;;;;;;;;;;;;;14.80;44.59;99700.56;4417737;32;19992;-85
2022/01/03 10:11:11;;;;;;;;;;;;;;;14.88;44.85;99708.38;4430585;32;20038;-82
2022/01/03 10:13:38;;;;;;;;;;;;;;;14.87;44.51;99707.50;4427413;32;20040;-83
2022/01/03 10:16:05;;;;;;;;;;;;;;;15.23;44.29;99702.13;4443991;32;20334;-83
2022/01/03 10:18:33;;;;;;;;;;;;;;;14.92;44.87;99704.88;4439935;32;19988;-82
2022/01/03 10:21:00;;;;;;;;;;;;;;;15.09;44.10;99692.66;4440301;32;20035;-83
2022/01/03 10:23:27;;;;;;;;;;;;;;;15.10;44.11;99701.34;4416652;32;20357;-82
2022/01/03 10:26:00;;;;;;;;;;;;;;;14.98;44.59;99696.16;4442620;32;19997;-80
2022/01/03 10:28:28;;;;;;;;;;;;;;;15.22;43.92;99688.25;4423182;32;19981;-82
2022/01/03 10:30:55;;;;;;;;;;;;;;;15.03;44.53;99670.97;4430290;32;19994;-83
2022/01/03 10:33:23;;;;;;;;;;;;;;;15.06;44.46;99656.16;4416446;32;19989;-83
2022/01/03 10:35:51;;;;;;;;;;;;;;;15.23;44.19;99658.69;4439915;32;20765;-84
2022/01/03 10:38:30;;;;;;;;;;;;;;;15.00;44.70;99655.34;4415907;32;19978;-83
2022/01/03 10:41:16;;;;;;;;;;;;;;;15.18;44.15;99663.03;4419783;32;19986;-81
2022/01/03 10:43:43;;;;;;;;;;;;;;;15.17;44.60;99663.91;4402980;32;20363;-85
2022/01/03 10:46:18;;;;;;;;;;;;;;;15.10;44.75;99672.66;4440224;32;20372;-81
2022/01/03 10:48:45;;;;;;;;;;;;;;;15.15;44.37;99665.66;4424443;32;19982;-81
2022/01/03 10:51:15;;;;;;;;;;;;;;;15.11;44.95;99663.94;4423027;32;20027;-81
2022/01/03 10:53:42;;;;;;;;;;;;;;;15.17;45.07;99671.75;4438373;32;20333;-82
2022/01/03 10:56:29;;;;;;;;;;;;;;;15.10;45.52;99662.22;4429585;32;20011;-83
2022/01/03 10:59:02;;;;;;;;;;;;;;;15.27;45.20;99675.16;4418092;32;20003;-83
2022/01/03 11:01:30;;;;;;;;;;;;;;;15.25;45.42;99677.78;4416211;32;19988;-83
2022/01/03 11:03:59;;;;;;;;;;;;;;;15.46;44.30;99678.53;4422899;32;19982;-79
2022/01/03 11:11:39;;;;;;;;;;;;;;;15.40;44.16;99647.25;4420725;32;20037;-81
2022/01/03 11:14:06;;;;;;;;;;;;;;;15.45;44.79;99653.34;4416596;32;19990;-81
2022/01/03 11:16:34;;;;;;;;;;;;;;;15.35;44.67;99658.59;4439564;32;20346;-82
2022/01/03 11:19:02;;;;;;;;;;;;;;;15.47;44.81;99651.56;4443627;32;19995;-82
2022/01/03 11:21:30;;;;;;;;;;;;;;;15.59;44.70;99659.31;4431637;32;19985;-82
2022/01/03 11:24:10;;;;;;;;;;;;;;;15.53;44.49;99648.91;4431606;32;19998;-83
2022/01/03 11:26:41;;;;;;;;;;;;;;;15.53;43.76;99651.53;4419932;32;19990;-85
2022/01/03 11:29:08;;;;;;;;;;;;;;;15.54;44.01;99663.72;4425177;32;20055;-86
2022/01/03 11:31:38;;;;;;;;;;;;;;;15.56;44.24;99668.00;4417408;32;19982;-86
2022/01/03 11:34:06;;;;;;;;;;;;;;;15.50;44.08;99656.75;4411467;32;20349;-85
2022/01/03 11:36:53;;;;;;;;;;;;;;;15.30;44.78;99659.50;4421060;32;19977;-84
2022/01/03 11:39:21;;;;;;;;;;;;;;;15.45;43.94;99653.34;4429536;32;20517;-84
2022/01/03 11:41:50;;;;;;;;;;;;;;;14.89;45.49;99643.19;4431111;32;20055;-82
2022/01/03 11:44:17;;;;;;;;;;;;;;;15.19;43.67;99648.25;4423523;32;19990;-84
2022/01/03 11:46:45;;;;;;;;;;;;;;;15.22;44.21;99640.41;4426459;32;20000;-84
2022/01/03 11:49:13;;;;;;;;;;;;;;;15.31;44.23;99650.78;4430923;32;20029;-83
2022/01/03 11:51:41;;;;;;;;;;;;;;;15.66;42.41;99657.50;4418577;32;19998;-82
2022/01/03 11:54:09;;;;;;;;;;;;;;;15.43;42.86;99661.16;4410382;32;21617;-83
2022/01/03 11:56:43;;;;;;;;;;;;;;;15.69;42.46;99663.59;4415182;32;19990;-82
2022/01/03 12:04:57;;;;;;;;;;;;;;;15.90;41.75;99672.16;4420317;32;19977;-82
2022/01/03 12:07:24;;;;;;;;;;;;;;;15.29;42.97;99674.28;4416033;32;20372;-81
2022/01/03 12:09:54;;;;;;;;;;;;;;;15.54;42.14;99663.72;4416343;32;19991;-82
2022/01/03 12:12:34;;;;;;;;;;;;;;;15.65;41.77;99661.88;4416126;32;19969;-82
2022/01/03 12:15:02;;;;;;;;;;;;;;;15.38;42.51;99662.06;4414732;32;19990;-80
2022/01/03 12:17:58;;;;;;;;;;;;;;;15.67;41.98;99639.28;4408276;32;19985;-82
2022/01/03 12:20:41;;;;;;;;;;;;;;;15.59;42.37;99651.47;4424656;32;19978;-82
2022/01/03 12:23:09;;;;;;;;;;;;;;;15.39;42.54;99642.94;4414113;32;19990;-83
2022/01/03 12:25:38;;;;;;;;;;;;;;;15.35;42.72;99642.97;4417307;32;20024;-83
2022/01/03 12:28:07;;;;;;;;;;;;;;;15.27;42.64;99649.94;4416823;32;20019;-87
2022/01/03 12:30:35;;;;;;;;;;;;;;;15.27;42.63;99643.87;4414429;32;20027;-85
2022/01/03 12:33:05;;;;;;;;;;;;;;;15.09;43.09;99655.25;4415626;32;20405;-84
2022/01/03 12:35:34;;;;;;;;;;;;;;;15.26;42.80;99657.78;4418506;32;20360;-84
2022/01/03 12:38:04;;;;;;;;;;;;;;;14.71;44.40;99668.47;4412628;32;20002;-84
2022/01/03 12:40:31;;;;;;;;;;;;;;;14.78;44.17;99663.25;4417555;32;19978;-83
2022/01/03 12:43:03;;;;;;;;;;;;;;;15.00;43.82;99665.75;4415221;32;20387;-83
2022/01/03 12:45:30;;;;;;;;;;;;;;;15.17;43.46;99663.91;4414031;32;20057;-84
2022/01/03 12:48:09;;;;;;;;;;;;;;;15.00;44.10;99674.44;4414031;32;20302;-84
2022/01/03 12:50:43;;;;;;;;;;;;;;;15.17;43.54;99669.12;4413377;32;20032;-84
2022/01/03 12:53:12;;;;;;;;;;;;;;;15.17;43.70;99673.50;4413310;32;20050;-84
2022/01/03 12:55:42;;;;;;;;;;;;;;;14.86;44.92;99674.47;4416161;32;20424;-84
2022/01/03 12:58:16;;;;;;;;;;;;;;;14.92;44.89;99667.53;4412339;32;20330;-83
2022/01/03 13:00:52;;;;;;;;;;;;;;;15.04;44.86;99672.69;4413994;32;19986;-83
2022/01/03 13:03:18;;;;;;;;;;;;;;;15.00;44.97;99676.19;4410996;32;19993;-86
2022/01/03 13:06:04;;;;;;;;;;;;;;;14.91;44.83;99676.22;4423147;32;20317;-84
2022/01/03 13:08:34;;;;;;;;;;;;;;;14.93;45.48;99664.88;4413739;32;19982;-81
2022/01/03 13:11:04;;;;;;;;;;;;;;;15.03;45.63;99676.19;4431698;32;19974;-84
2022/01/03 13:13:31;;;;;;;;;;;;;;;15.02;45.62;99664.00;4439439;32;19990;-85
2022/01/03 13:15:58;;;;;;;;;;;;;;;15.00;45.50;99665.75;4418207;32;20776;-84
2022/01/03 13:18:26;;;;;;;;;;;;;;;15.23;44.71;99669.09;4421155;32;19999;-82
2022/01/03 13:20:54;;;;;;;;;;;;;;;15.06;45.45;99670.91;4423231;32;19978;-84
2022/01/03 13:23:21;;;;;;;;;;;;;;;14.84;45.78;99684.06;4418168;32;20004;-83